Time;durP1;ratioP1;P1;durP2;ratioP2;P2;SDS_P1;SDS_P2;PMS_P1;PMS_P2;Temp;Humidity;BMP_temperature;BMP_pressure;BME280_temperature;BME280_humidity;BME280_pressure;Samples;Min_cycle;Max_cycle;Signal;HPM_P1;HPM_P2
2021/03/16 00:02:01;;;;;;;;;;;;;;;;;;5049716;28;889;-62
2021/03/16 00:04:26;;;;;;;;;;;;;;;;;;5050225;28;807;-62
2021/03/16 00:06:52;;;;;;;;;;;;;;;;;;5050415;28;989;-62
2021/03/16 00:09:18;;;;;;;;;;;;;;;;;;5049566;28;1898;-62
2021/03/16 00:11:43;;;;;;;;;;;;;;;;;;5049510;28;835;-62
2021/03/16 00:14:08;;;;;;;;;;;;;;;;;;5049348;28;879;-62
2021/03/16 00:16:34;;;;;;;;;;;;;;;;;;5048853;28;841;-62
2021/03/16 00:18:59;;;;;;;;;;;;;;;;;;5048907;28;870;-62
2021/03/16 00:21:24;;;;;;;;;;;;;;;;;;5049867;28;799;-62
2021/03/16 00:23:50;;;;;;;;;;;;;;;;;;5050341;28;826;-62
2021/03/16 00:26:15;;;;;;;;;;;;;;;;;;5049182;28;870;-62
2021/03/16 00:28:41;;;;;;;;;;;;;;;;;;5049425;28;1967;-62
2021/03/16 00:31:06;;;;;;;;;;;;;;;;;;5049213;28;838;-62
2021/03/16 00:33:31;;;;;;;;;;;;;;;;;;5048705;28;835;-62
2021/03/16 00:35:57;;;;;;;;;;;;;;;;;;5049565;28;803;-62
2021/03/16 00:38:22;;;;;;;;;;;;;;;;;;5050789;28;854;-62
2021/03/16 00:40:49;;;;;;;;;;;;;;;;;;5049207;28;791;-62
2021/03/16 00:43:15;;;;;;;;;;;;;;;;;;5049320;28;860;-62
2021/03/16 00:45:40;;;;;;;;;;;;;;;;;;5049045;28;839;-61
2021/03/16 00:48:06;;;;;;;;;;;;;;;;;;5048390;28;1901;-62
2021/03/16 00:50:31;;;;;;;;;;;;;;;;;;5048399;28;874;-62
2021/03/16 00:52:57;;;;;;;;;;;;;;;;;;5051288;28;1071;-62
2021/03/16 00:55:22;;;;;;;;;;;;;;;;;;5069949;28;926;-62
2021/03/16 00:57:47;;;;;;;;;;;;;;;;;;5068944;28;886;-62
2021/03/16 01:00:13;;;;;;;;;;;;;;;;;;5063115;28;1076;-62
2021/03/16 01:02:38;;;;;;;;;;;;;;;;;;5051509;28;1209;-61
2021/03/16 01:05:04;;;;;;;;;;;;;;;;;;5048610;28;898;-62
2021/03/16 01:07:29;;;;;;;;;;;;;;;;;;5048303;28;884;-62
2021/03/16 01:09:55;;;;;;;;;;;;;;;;;;5048388;28;1882;-62
2021/03/16 01:12:20;;;;;;;;;;;;;;;;;;5048544;28;1029;-62
2021/03/16 01:14:45;;;;;;;;;;;;;;;;;;5047800;28;800;-62
2021/03/16 01:17:11;;;;;;;;;;;;;;;;;;5048053;28;835;-62
2021/03/16 01:19:36;;;;;;;;;;;;;;;;;;5048396;28;879;-62
2021/03/16 01:22:02;;;;;;;;;;;;;;;;;;5047949;28;803;-62
2021/03/16 01:24:27;;;;;;;;;;;;;;;;;;5047417;28;851;-62
2021/03/16 01:26:53;;;;;;;;;;;;;;;;;;5049297;28;889;-62
2021/03/16 01:29:18;;;;;;;;;;;;;;;;;;5048533;28;1961;-62
2021/03/16 01:31:43;;;;;;;;;;;;;;;;;;5048028;28;831;-62
2021/03/16 01:34:09;;;;;;;;;;;;;;;;;;5027320;28;1645;-62
2021/03/16 01:36:34;;;;;;;;;;;;;;;;;;5047021;28;1037;-62
2021/03/16 01:38:59;;;;;;;;;;;;;;;;;;5047796;28;820;-62
2021/03/16 01:41:25;;;;;;;;;;;;;;;;;;5047914;28;824;-62
2021/03/16 01:43:50;;;;;;;;;;;;;;;;;;5048403;28;851;-62
2021/03/16 01:46:17;;;;;;;;;;;;;;;;;;5047357;28;827;-62
2021/03/16 01:48:43;;;;;;;;;;;;;;;;;;5045890;28;1914;-62
2021/03/16 01:51:11;;;;;;;;;;;;;;;;;;5047670;28;1297;-62
2021/03/16 01:53:37;;;;;;;;;;;;;;;;;;5056186;28;1173;-62
2021/03/16 01:56:03;;;;;;;;;;;;;;;;;;5067517;28;911;-62
2021/03/16 01:58:28;;;;;;;;;;;;;;;;;;5067578;28;883;-62
2021/03/16 02:00:54;;;;;;;;;;;;;;;;;;5068021;28;799;-62
2021/03/16 02:03:19;;;;;;;;;;;;;;;;;;5068228;28;945;-62
2021/03/16 02:05:45;;;;;;;;;;;;;;;;;;5067420;28;800;-62
2021/03/16 02:08:22;;;;;;;;;;;;;;;;;;5067400;28;1898;-62
2021/03/16 02:10:54;;;;;;;;;;;;;;;;;;5056204;28;942;-61
2021/03/16 02:13:22;;;;;;;;;;;;;;;;;;5048230;28;870;-62
2021/03/16 02:15:55;;;;;;;;;;;;;;;;;;5047499;28;894;-62
2021/03/16 02:18:23;;;;;;;;;;;;;;;;;;5048209;28;937;-62
2021/03/16 02:20:48;;;;;;;;;;;;;;;;;;5048002;28;862;-62
2021/03/16 02:23:13;;;;;;;;;;;;;;;;;;5047289;28;882;-59
2021/03/16 02:25:42;;;;;;;;;;;;;;;;;;5046978;28;843;-62
2021/03/16 02:28:13;;;;;;;;;;;;;;;;;;5046716;28;1906;-61
2021/03/16 02:30:41;;;;;;;;;;;;;;;;;;5046971;28;869;-62
2021/03/16 02:33:09;;;;;;;;;;;;;;;;;;5047123;28;839;-62
2021/03/16 02:35:35;;;;;;;;;;;;;;;;;;5046868;28;1081;-62
2021/03/16 02:38:02;;;;;;;;;;;;;;;;;;5046660;28;831;-61
2021/03/16 02:40:28;;;;;;;;;;;;;;;;;;5046336;28;855;-62
2021/03/16 02:42:54;;;;;;;;;;;;;;;;;;5046293;28;904;-62
2021/03/16 02:45:20;;;;;;;;;;;;;;;;;;5047239;28;823;-62
2021/03/16 02:47:46;;;;;;;;;;;;;;;;;;5046116;28;930;-62
2021/03/16 02:50:13;;;;;;;;;;;;;;;;;;5046977;28;1905;-62
2021/03/16 02:52:38;;;;;;;;;;;;;;;;;;5047217;28;1095;-62
2021/03/16 02:55:05;;;;;;;;;;;;;;;;;;5050147;28;846;-62
2021/03/16 02:57:31;;;;;;;;;;;;;;;;;;5050508;28;902;-62
2021/03/16 02:59:59;;;;;;;;;;;;;;;;;;5051007;28;982;-62
2021/03/16 03:02:25;;;;;;;;;;;;;;;;;;5050853;28;851;-62
2021/03/16 03:04:51;;;;;;;;;;;;;;;;;;5051535;28;934;-62
2021/03/16 03:07:18;;;;;;;;;;;;;;;;;;5053533;28;1019;-62
2021/03/16 03:09:44;;;;;;;;;;;;;;;;;;5050617;28;2009;-62
2021/03/16 03:12:09;;;;;;;;;;;;;;;;;;5050367;28;878;-62
2021/03/16 03:14:36;;;;;;;;;;;;;;;;;;5050723;28;902;-62
2021/03/16 03:17:02;;;;;;;;;;;;;;;;;;5049555;28;995;-62
2021/03/16 03:19:28;;;;;;;;;;;;;;;;;;5050605;28;875;-62
2021/03/16 03:22:01;;;;;;;;;;;;;;;;;;5050614;28;945;-62
2021/03/16 03:24:31;;;;;;;;;;;;;;;;;;5050452;28;713;-62
2021/03/16 03:27:20;;;;;;;;;;;;;;;;;;5050715;28;816;-63
2021/03/16 03:29:47;;;;;;;;;;;;;;;;;;5049744;28;1893;-62
2021/03/16 03:32:14;;;;;;;;;;;;;;;;;;5050590;28;914;-62
2021/03/16 03:34:40;;;;;;;;;;;;;;;;;;5050082;28;847;-62
2021/03/16 03:37:07;;;;;;;;;;;;;;;;;;5049137;28;1124;-62
2021/03/16 03:39:33;;;;;;;;;;;;;;;;;;5049499;28;1171;-62
2021/03/16 03:41:59;;;;;;;;;;;;;;;;;;5050357;28;803;-62
2021/03/16 03:44:24;;;;;;;;;;;;;;;;;;5049777;28;913;-63
2021/03/16 03:46:51;;;;;;;;;;;;;;;;;;5050743;28;875;-62
2021/03/16 03:49:19;;;;;;;;;;;;;;;;;;5050035;28;1987;-62
2021/03/16 03:51:44;;;;;;;;;;;;;;;;;;5048765;28;791;-62
2021/03/16 03:54:10;;;;;;;;;;;;;;;;;;5061253;28;1253;-62
2021/03/16 03:56:36;;;;;;;;;;;;;;;;;;5069815;28;898;-62
2021/03/16 03:59:06;;;;;;;;;;;;;;;;;;5068898;28;1070;-62
2021/03/16 04:01:32;;;;;;;;;;;;;;;;;;5069019;28;881;-62
2021/03/16 04:03:58;;;;;;;;;;;;;;;;;;5069712;28;854;-62
2021/03/16 04:06:26;;;;;;;;;;;;;;;;;;5069737;28;933;-62
2021/03/16 04:08:52;;;;;;;;;;;;;;;;;;5068931;28;1981;-62
2021/03/16 04:11:18;;;;;;;;;;;;;;;;;;5069843;28;806;-62
2021/03/16 04:13:44;;;;;;;;;;;;;;;;;;5070069;28;926;-62
2021/03/16 04:16:10;;;;;;;;;;;;;;;;;;5069812;28;1009;-62
2021/03/16 04:18:36;;;;;;;;;;;;;;;;;;5069555;28;901;-62
2021/03/16 04:21:01;;;;;;;;;;;;;;;;;;5069528;28;838;-62
2021/03/16 04:23:27;;;;;;;;;;;;;;;;;;5069788;28;886;-62
2021/03/16 04:25:52;;;;;;;;;;;;;;;;;;5065160;28;1222;-62
2021/03/16 04:28:18;;;;;;;;;;;;;;;;;;5069503;28;1894;-62
2021/03/16 04:30:43;;;;;;;;;;;;;;;;;;5069381;28;854;-62
2021/03/16 04:33:09;;;;;;;;;;;;;;;;;;5069130;28;811;-62
2021/03/16 04:35:34;;;;;;;;;;;;;;;;;;5069481;28;859;-62
2021/03/16 04:38:00;;;;;;;;;;;;;;;;;;5068393;28;902;-62
2021/03/16 04:40:25;;;;;;;;;;;;;;;;;;5069330;28;835;-62
2021/03/16 04:42:50;;;;;;;;;;;;;;;;;;5069804;28;882;-62
2021/03/16 04:45:16;;;;;;;;;;;;;;;;;;5068936;28;866;-62
2021/03/16 04:47:41;;;;;;;;;;;;;;;;;;5069515;28;855;-62
2021/03/16 04:50:07;;;;;;;;;;;;;;;;;;5068506;28;1991;-62
2021/03/16 04:52:32;;;;;;;;;;;;;;;;;;5056418;28;1494;-62
2021/03/16 04:54:58;;;;;;;;;;;;;;;;;;5041395;28;1258;-62
2021/03/16 04:57:23;;;;;;;;;;;;;;;;;;5029229;28;815;-63
2021/03/16 04:59:49;;;;;;;;;;;;;;;;;;5030485;28;822;-62
2021/03/16 05:02:16;;;;;;;;;;;;;;;;;;5048131;28;839;-62
2021/03/16 05:04:41;;;;;;;;;;;;;;;;;;5048661;28;926;-62
2021/03/16 05:07:07;;;;;;;;;;;;;;;;;;5048489;28;902;-62
2021/03/16 05:09:32;;;;;;;;;;;;;;;;;;5049056;28;1905;-62
2021/03/16 05:11:57;;;;;;;;;;;;;;;;;;5044690;28;1240;-62
2021/03/16 05:14:23;;;;;;;;;;;;;;;;;;5029387;28;891;-62
2021/03/16 05:16:48;;;;;;;;;;;;;;;;;;5028539;28;882;-62
2021/03/16 05:19:13;;;;;;;;;;;;;;;;;;5027243;28;1283;-62
2021/03/16 05:21:39;;;;;;;;;;;;;;;;;;5028355;28;823;-62
2021/03/16 05:24:05;;;;;;;;;;;;;;;;;;5027920;28;947;-62
2021/03/16 05:26:30;;;;;;;;;;;;;;;;;;5027849;28;799;-62
2021/03/16 05:28:55;;;;;;;;;;;;;;;;;;5028331;28;1885;-62
2021/03/16 05:31:21;;;;;;;;;;;;;;;;;;5029149;28;723;-62
2021/03/16 05:33:46;;;;;;;;;;;;;;;;;;5028080;28;890;-62
2021/03/16 05:36:11;;;;;;;;;;;;;;;;;;5028054;28;942;-62
2021/03/16 05:38:37;;;;;;;;;;;;;;;;;;5028584;28;811;-62
2021/03/16 05:41:02;;;;;;;;;;;;;;;;;;5028032;28;902;-62
2021/03/16 05:43:28;;;;;;;;;;;;;;;;;;5038935;28;983;-62
2021/03/16 05:45:56;;;;;;;;;;;;;;;;;;5047274;28;855;-63
2021/03/16 05:48:23;;;;;;;;;;;;;;;;;;5048538;28;1901;-62
2021/03/16 05:50:49;;;;;;;;;;;;;;;;;;5048281;28;710;-62
2021/03/16 05:53:14;;;;;;;;;;;;;;;;;;5052869;28;1191;-62
2021/03/16 05:55:40;;;;;;;;;;;;;;;;;;5067763;28;869;-62
2021/03/16 05:58:05;;;;;;;;;;;;;;;;;;5067806;28;846;-62
2021/03/16 06:00:31;;;;;;;;;;;;;;;;;;5067555;28;827;-62
2021/03/16 06:02:57;;;;;;;;;;;;;;;;;;5054956;28;822;-62
2021/03/16 06:05:22;;;;;;;;;;;;;;;;;;5048332;28;961;-62
2021/03/16 06:07:50;;;;;;;;;;;;;;;;;;5047452;28;1001;-62
2021/03/16 06:10:20;;;;;;;;;;;;;;;;;;5047360;28;1910;-62
2021/03/16 06:12:45;;;;;;;;;;;;;;;;;;5047242;28;823;-62
2021/03/16 06:15:12;;;;;;;;;;;;;;;;;;5047235;28;926;-61
2021/03/16 06:17:47;;;;;;;;;;;;;;;;;;5040979;28;1140;-62
2021/03/16 06:20:25;;;;;;;;;;;;;;;;;;5027752;28;882;-61
2021/03/16 06:23:01;;;;;;;;;;;;;;;;;;5036557;28;866;-61
2021/03/16 06:25:30;;;;;;;;;;;;;;;;;;5046831;28;1183;-61
2021/03/16 06:28:03;;;;;;;;;;;;;;;;;;5046212;28;887;-61
2021/03/16 06:30:28;;;;;;;;;;;;;;;;;;5046752;28;867;-61
2021/03/16 06:32:54;;;;;;;;;;;;;;;;;;5046505;28;1175;-62
2021/03/16 06:35:19;;;;;;;;;;;;;;;;;;5047618;28;831;-61
2021/03/16 06:38:05;;;;;;;;;;;;;;;;;;5046756;28;858;-61
2021/03/16 06:40:31;;;;;;;;;;;;;;;;;;5045901;28;2046;-61
2021/03/16 06:43:07;;;;;;;;;;;;;;;;;;5047050;28;1289;-61
2021/03/16 06:45:33;;;;;;;;;;;;;;;;;;5046286;28;844;-61
2021/03/16 06:48:00;;;;;;;;;;;;;;;;;;5046909;28;1901;-61
2021/03/16 06:50:29;;;;;;;;;;;;;;;;;;5047336;28;839;-62
2021/03/16 06:52:54;;;;;;;;;;;;;;;;;;5049529;28;1087;-61
2021/03/16 06:55:20;;;;;;;;;;;;;;;;;;5064778;28;1047;-61
2021/03/16 06:57:46;;;;;;;;;;;;;;;;;;5065301;28;1189;-61
2021/03/16 07:00:11;;;;;;;;;;;;;;;;;;5065671;28;1173;-62
2021/03/16 07:02:37;;;;;;;;;;;;;;;;;;5054273;28;1430;-61
2021/03/16 07:05:02;;;;;;;;;;;;;;;;;;5027780;28;973;-61
2021/03/16 07:07:28;;;;;;;;;;;;;;;;;;5027119;28;871;-61
2021/03/16 07:09:55;;;;;;;;;;;;;;;;;;5026834;28;2423;-63
2021/03/16 07:12:21;;;;;;;;;;;;;;;;;;5037313;28;1082;-61
2021/03/16 07:14:47;;;;;;;;;;;;;;;;;;5046721;28;968;-59
2021/03/16 07:17:13;;;;;;;;;;;;;;;;;;5034284;28;1080;-61
2021/03/16 07:19:38;;;;;;;;;;;;;;;;;;5048321;28;2002;-61
2021/03/16 07:22:06;;;;;;;;;;;;;;;;;;5046462;28;999;-61
2021/03/16 07:24:31;;;;;;;;;;;;;;;;;;5045505;28;1079;-61
2021/03/16 07:26:57;;;;;;;;;;;;;;;;;;5055886;28;1037;-61
2021/03/16 07:29:23;;;;;;;;;;;;;;;;;;5066502;28;1910;-61
2021/03/16 07:31:50;;;;;;;;;;;;;;;;;;5066756;28;792;-61
2021/03/16 07:34:19;;;;;;;;;;;;;;;;;;5028752;28;957;-61
2021/03/16 07:36:45;;;;;;;;;;;;;;;;;;5065941;28;1154;-61
2021/03/16 07:39:12;;;;;;;;;;;;;;;;;;5054897;28;1150;-61
2021/03/16 07:41:37;;;;;;;;;;;;;;;;;;5047001;28;843;-61
2021/03/16 07:44:07;;;;;;;;;;;;;;;;;;5050100;28;860;-62
2021/03/16 07:46:46;;;;;;;;;;;;;;;;;;5049840;28;850;-63
2021/03/16 07:49:13;;;;;;;;;;;;;;;;;;5049693;28;1997;-62
2021/03/16 07:51:43;;;;;;;;;;;;;;;;;;5052471;28;1129;-60
2021/03/16 07:54:09;;;;;;;;;;;;;;;;;;5055185;28;1110;-61
2021/03/16 07:56:35;;;;;;;;;;;;;;;;;;5048313;28;1404;-61
2021/03/16 07:59:02;;;;;;;;;;;;;;;;;;5070091;28;874;-61
2021/03/16 08:01:28;;;;;;;;;;;;;;;;;;5068496;28;922;-60
2021/03/16 08:04:09;;;;;;;;;;;;;;;;;;5069115;28;930;-61
2021/03/16 08:06:36;;;;;;;;;;;;;;;;;;5069677;28;862;-61
2021/03/16 08:09:02;;;;;;;;;;;;;;;;;;5065301;28;1901;-61
2021/03/16 08:11:41;;;;;;;;;;;;;;;;;;5050011;28;957;-62
2021/03/16 08:14:07;;;;;;;;;;;;;;;;;;5049692;28;862;-62
2021/03/16 08:16:41;;;;;;;;;;;;;;;;;;5050213;28;1300;-62
2021/03/16 08:19:10;;;;;;;;;;;;;;;;;;5049692;28;1160;-61
2021/03/16 08:21:36;;;;;;;;;;;;;;;;;;5048114;28;1265;-62
2021/03/16 08:24:19;;;;;;;;;;;;;;;;;;5029602;28;950;-65
2021/03/16 08:26:46;;;;;;;;;;;;;;;;;;5039060;28;1089;-61
2021/03/16 08:29:12;;;;;;;;;;;;;;;;;;5049289;28;1898;-61
2021/03/16 08:31:38;;;;;;;;;;;;;;;;;;5048534;28;877;-62
2021/03/16 08:34:06;;;;;;;;;;;;;;;;;;5049258;28;961;-63
2021/03/16 08:36:32;;;;;;;;;;;;;;;;;;5049115;28;815;-61
2021/03/16 08:38:57;;;;;;;;;;;;;;;;;;5048818;28;1100;-62
2021/03/16 08:41:23;;;;;;;;;;;;;;;;;;5050134;28;1151;-62
2021/03/16 08:43:49;;;;;;;;;;;;;;;;;;5049733;28;926;-62
2021/03/16 08:46:26;;;;;;;;;;;;;;;;;;5049060;28;819;-62
2021/03/16 08:48:52;;;;;;;;;;;;;;;;;;5049892;28;1973;-63
2021/03/16 08:51:23;;;;;;;;;;;;;;;;;;5048096;28;874;-62
2021/03/16 08:53:48;;;;;;;;;;;;;;;;;;5048968;28;1438;-62
2021/03/16 08:56:18;;;;;;;;;;;;;;;;;;5029347;28;1021;-62
2021/03/16 08:58:43;;;;;;;;;;;;;;;;;;5029223;28;886;-62
2021/03/16 09:01:08;;;;;;;;;;;;;;;;;;5028450;28;1184;-61
2021/03/16 09:03:34;;;;;;;;;;;;;;;;;;5028514;28;965;-61
2021/03/16 09:06:00;;;;;;;;;;;;;;;;;;5030017;28;879;-61
2021/03/16 09:08:26;;;;;;;;;;;;;;;;;;5048340;28;1886;-63
2021/03/16 09:10:51;;;;;;;;;;;;;;;;;;5049178;28;871;-62
2021/03/16 09:13:26;;;;;;;;;;;;;;;;;;5047952;28;1126;-62
2021/03/16 09:15:52;;;;;;;;;;;;;;;;;;5028819;28;799;-62
2021/03/16 09:18:17;;;;;;;;;;;;;;;;;;5054040;28;1007;-61
2021/03/16 09:20:43;;;;;;;;;;;;;;;;;;5068111;28;843;-62
2021/03/16 09:23:13;;;;;;;;;;;;;;;;;;5068884;28;882;-61
2021/03/16 09:25:40;;;;;;;;;;;;;;;;;;5067931;28;837;-62
2021/03/16 09:28:11;;;;;;;;;;;;;;;;;;5052229;28;1898;-61
2021/03/16 09:30:44;;;;;;;;;;;;;;;;;;5047660;28;1276;-60
2021/03/16 09:33:11;;;;;;;;;;;;;;;;;;5047980;28;1113;-61
2021/03/16 09:35:36;;;;;;;;;;;;;;;;;;5047437;28;806;-60
2021/03/16 09:38:03;;;;;;;;;;;;;;;;;;5041217;28;1081;-62
2021/03/16 09:40:37;;;;;;;;;;;;;;;;;;5039694;28;823;-62
2021/03/16 09:43:03;;;;;;;;;;;;;;;;;;5047597;28;881;-62
2021/03/16 09:45:30;;;;;;;;;;;;;;;;;;5047506;28;894;-61
2021/03/16 09:47:57;;;;;;;;;;;;;;;;;;5048241;28;893;-62
2021/03/16 09:50:23;;;;;;;;;;;;;;;;;;5046763;28;1898;-62
2021/03/16 09:52:57;;;;;;;;;;;;;;;;;;5049324;28;1285;-62
2021/03/16 09:55:24;;;;;;;;;;;;;;;;;;5050678;28;1163;-62
2021/03/16 09:57:49;;;;;;;;;;;;;;;;;;5048267;28;1171;-62
2021/03/16 10:00:16;;;;;;;;;;;;;;;;;;5047119;28;1222;-62
2021/03/16 10:02:42;;;;;;;;;;;;;;;;;;5047629;28;1203;-62
2021/03/16 10:05:11;;;;;;;;;;;;;;;;;;5046460;28;1132;-62
2021/03/16 10:07:37;;;;;;;;;;;;;;;;;;5045817;28;1206;-62
2021/03/16 10:10:07;;;;;;;;;;;;;;;;;;5046259;28;1989;-62
2021/03/16 10:12:32;;;;;;;;;;;;;;;;;;5046899;28;1231;-62
2021/03/16 10:14:58;;;;;;;;;;;;;;;;;;5045391;28;1226;-62
2021/03/16 10:17:24;;;;;;;;;;;;;;;;;;5046117;28;803;-61
2021/03/16 10:19:54;;;;;;;;;;;;;;;;;;5046896;28;816;-61
2021/03/16 10:22:19;;;;;;;;;;;;;;;;;;5044704;28;1635;-61
2021/03/16 10:24:53;;;;;;;;;;;;;;;;;;5045570;28;1135;-62
2021/03/16 10:27:29;;;;;;;;;;;;;;;;;;5046027;28;914;-61
2021/03/16 10:29:54;;;;;;;;;;;;;;;;;;5045205;28;1890;-62
2021/03/16 10:32:20;;;;;;;;;;;;;;;;;;5042830;28;1404;-61
2021/03/16 10:34:45;;;;;;;;;;;;;;;;;;5041143;28;998;-62
2021/03/16 10:37:18;;;;;;;;;;;;;;;;;;5025252;28;875;-62
2021/03/16 10:39:43;;;;;;;;;;;;;;;;;;5036866;28;1160;-62
2021/03/16 10:42:09;;;;;;;;;;;;;;;;;;5046946;28;800;-61
2021/03/16 10:44:34;;;;;;;;;;;;;;;;;;5046686;28;828;-62
2021/03/16 10:46:59;;;;;;;;;;;;;;;;;;5045553;28;1179;-62
2021/03/16 10:49:25;;;;;;;;;;;;;;;;;;5045695;28;1971;-60
2021/03/16 10:51:50;;;;;;;;;;;;;;;;;;5046670;28;847;-61
2021/03/16 10:54:15;;;;;;;;;;;;;;;;;;5060599;28;1130;-60
2021/03/16 10:56:41;;;;;;;;;;;;;;;;;;5065142;28;839;-62
2021/03/16 10:59:06;;;;;;;;;;;;;;;;;;5066447;28;909;-63
2021/03/16 11:01:32;;;;;;;;;;;;;;;;;;5064242;28;2197;-61
2021/03/16 11:03:57;;;;;;;;;;;;;;;;;;5042060;28;1092;-62
2021/03/16 11:06:23;;;;;;;;;;;;;;;;;;5046657;28;1266;-62
2021/03/16 11:08:48;;;;;;;;;;;;;;;;;;5041451;28;1968;-63
2021/03/16 11:11:14;;;;;;;;;;;;;;;;;;5043036;28;1438;-62
2021/03/16 11:13:39;;;;;;;;;;;;;;;;;;5043565;28;1100;-62
2021/03/16 11:16:05;;;;;;;;;;;;;;;;;;5042566;28;1621;-62
2021/03/16 11:18:30;;;;;;;;;;;;;;;;;;5048297;28;1214;-62
2021/03/16 11:20:55;;;;;;;;;;;;;;;;;;5047740;28;1211;-62
2021/03/16 11:23:21;;;;;;;;;;;;;;;;;;5048489;28;1140;-62
2021/03/16 11:25:46;;;;;;;;;;;;;;;;;;5050121;28;1222;-62
2021/03/16 11:28:12;;;;;;;;;;;;;;;;;;5047433;28;1906;-59
2021/03/16 11:30:37;;;;;;;;;;;;;;;;;;5038590;28;870;-61
2021/03/16 11:33:03;;;;;;;;;;;;;;;;;;5049852;28;1003;-62
2021/03/16 11:35:29;;;;;;;;;;;;;;;;;;5048312;28;1360;-62
2021/03/16 11:37:54;;;;;;;;;;;;;;;;;;5048658;28;1377;-61
2021/03/16 11:40:20;;;;;;;;;;;;;;;;;;5050429;28;1077;-63
2021/03/16 11:42:45;;;;;;;;;;;;;;;;;;5055255;28;833;-65
2021/03/16 11:45:11;;;;;;;;;;;;;;;;;;5048666;28;830;-66
2021/03/16 11:47:36;;;;;;;;;;;;;;;;;;5047706;28;1017;-63
2021/03/16 11:50:02;;;;;;;;;;;;;;;;;;5040837;28;1961;-63
2021/03/16 11:52:28;;;;;;;;;;;;;;;;;;5029204;28;887;-66
2021/03/16 11:54:53;;;;;;;;;;;;;;;;;;5068643;28;1080;-65
2021/03/16 11:57:18;;;;;;;;;;;;;;;;;;5069795;28;780;-67
2021/03/16 11:59:44;;;;;;;;;;;;;;;;;;5049468;28;1135;-63
2021/03/16 12:02:09;;;;;;;;;;;;;;;;;;5049603;28;922;-62
2021/03/16 12:04:34;;;;;;;;;;;;;;;;;;5049792;28;878;-64
2021/03/16 12:07:00;;;;;;;;;;;;;;;;;;5049540;28;827;-63
2021/03/16 12:09:25;;;;;;;;;;;;;;;;;;5049334;28;1894;-62
2021/03/16 12:11:50;;;;;;;;;;;;;;;;;;5048221;28;1632;-66
2021/03/16 12:14:16;;;;;;;;;;;;;;;;;;5049039;28;847;-63
2021/03/16 12:16:41;;;;;;;;;;;;;;;;;;5049116;28;883;-62
2021/03/16 12:19:06;;;;;;;;;;;;;;;;;;5050203;28;839;-60
2021/03/16 12:21:32;;;;;;;;;;;;;;;;;;5047319;28;855;-61
2021/03/16 12:24:01;;;;;;;;;;;;;;;;;;5048814;28;859;-59
2021/03/16 12:26:26;;;;;;;;;;;;;;;;;;5049265;28;925;-65
2021/03/16 12:28:52;;;;;;;;;;;;;;;;;;5049916;28;1893;-62
2021/03/16 12:31:18;;;;;;;;;;;;;;;;;;5048787;28;1317;-60
2021/03/16 12:33:43;;;;;;;;;;;;;;;;;;5044330;28;1471;-60
2021/03/16 12:36:09;;;;;;;;;;;;;;;;;;5043409;28;1064;-62
2021/03/16 12:38:35;;;;;;;;;;;;;;;;;;5049594;28;1164;-62
2021/03/16 12:41:00;;;;;;;;;;;;;;;;;;5049080;28;870;-61
2021/03/16 12:43:26;;;;;;;;;;;;;;;;;;5049239;28;938;-61
2021/03/16 12:45:51;;;;;;;;;;;;;;;;;;5050386;28;945;-62
2021/03/16 12:48:17;;;;;;;;;;;;;;;;;;5049227;28;1906;-62
2021/03/16 12:50:42;;;;;;;;;;;;;;;;;;5048827;28;827;-61
2021/03/16 12:53:08;;;;;;;;;;;;;;;;;;5052678;28;1130;-63
2021/03/16 12:55:33;;;;;;;;;;;;;;;;;;5069215;28;720;-62
2021/03/16 12:57:59;;;;;;;;;;;;;;;;;;5059841;28;1445;-60
2021/03/16 13:00:25;;;;;;;;;;;;;;;;;;5048493;28;851;-63
2021/03/16 13:02:50;;;;;;;;;;;;;;;;;;5049137;28;1279;-61
2021/03/16 13:05:16;;;;;;;;;;;;;;;;;;5048282;28;867;-61
2021/03/16 13:07:41;;;;;;;;;;;;;;;;;;5048223;28;855;-61
2021/03/16 13:10:07;;;;;;;;;;;;;;;;;;5048427;28;1956;-62
2021/03/16 13:12:32;;;;;;;;;;;;;;;;;;5049070;28;1004;-62
2021/03/16 13:14:58;;;;;;;;;;;;;;;;;;5048351;28;1254;-61
2021/03/16 13:17:23;;;;;;;;;;;;;;;;;;5048829;28;827;-62
2021/03/16 13:19:49;;;;;;;;;;;;;;;;;;5048442;28;1072;-61
2021/03/16 13:22:14;;;;;;;;;;;;;;;;;;5046074;28;1319;-60
2021/03/16 13:24:40;;;;;;;;;;;;;;;;;;5047034;28;1169;-63
2021/03/16 13:27:05;;;;;;;;;;;;;;;;;;5039704;28;870;-62
2021/03/16 13:29:30;;;;;;;;;;;;;;;;;;5028382;28;1951;-62
2021/03/16 13:31:56;;;;;;;;;;;;;;;;;;5043134;28;1154;-61
2021/03/16 13:34:22;;;;;;;;;;;;;;;;;;5046456;28;1093;-64
2021/03/16 13:36:47;;;;;;;;;;;;;;;;;;5040213;28;891;-63
2021/03/16 13:39:12;;;;;;;;;;;;;;;;;;5046935;28;798;-60
2021/03/16 13:41:38;;;;;;;;;;;;;;;;;;5047894;28;858;-62
2021/03/16 13:44:03;;;;;;;;;;;;;;;;;;5048010;28;934;-61
2021/03/16 13:46:28;;;;;;;;;;;;;;;;;;5048340;28;886;-61
2021/03/16 13:48:54;;;;;;;;;;;;;;;;;;5043547;28;1906;-63
2021/03/16 13:51:19;;;;;;;;;;;;;;;;;;5048037;28;863;-61
2021/03/16 13:53:45;;;;;;;;;;;;;;;;;;4976786;28;12595;-61
2021/03/16 13:56:10;;;;;;;;;;;;;;;;;;5065645;28;886;-61
2021/03/16 13:58:35;;;;;;;;;;;;;;;;;;5062822;28;1167;-61
2021/03/16 14:01:01;;;;;;;;;;;;;;;;;;5047186;28;866;-62
2021/03/16 14:03:26;;;;;;;;;;;;;;;;;;5046502;28;971;-62
2021/03/16 14:05:52;;;;;;;;;;;;;;;;;;5048275;28;878;-62
2021/03/16 14:08:17;;;;;;;;;;;;;;;;;;5047476;28;1997;-61
2021/03/16 14:10:43;;;;;;;;;;;;;;;;;;5047818;28;893;-62
2021/03/16 14:13:08;;;;;;;;;;;;;;;;;;5046951;28;893;-62
2021/03/16 14:15:34;;;;;;;;;;;;;;;;;;5046427;28;894;-62
2021/03/16 14:17:59;;;;;;;;;;;;;;;;;;5046343;28;878;-62
2021/03/16 14:20:24;;;;;;;;;;;;;;;;;;5045287;28;1426;-62
2021/03/16 14:22:50;;;;;;;;;;;;;;;;;;5031686;28;1078;-61
2021/03/16 14:25:15;;;;;;;;;;;;;;;;;;5026705;28;859;-62
2021/03/16 14:27:41;;;;;;;;;;;;;;;;;;5025556;28;843;-62
2021/03/16 14:30:07;;;;;;;;;;;;;;;;;;5026305;28;1889;-62
2021/03/16 14:32:33;;;;;;;;;;;;;;;;;;5027610;28;954;-62
2021/03/16 14:34:58;;;;;;;;;;;;;;;;;;5027247;28;841;-62
2021/03/16 14:37:24;;;;;;;;;;;;;;;;;;5026587;28;847;-61
2021/03/16 14:39:49;;;;;;;;;;;;;;;;;;5026476;28;1147;-62
2021/03/16 14:42:15;;;;;;;;;;;;;;;;;;5027642;28;823;-62
2021/03/16 14:44:40;;;;;;;;;;;;;;;;;;5027101;28;922;-62
2021/03/16 14:47:06;;;;;;;;;;;;;;;;;;5027002;28;1488;-62
2021/03/16 14:49:31;;;;;;;;;;;;;;;;;;5027616;28;1967;-62
2021/03/16 14:51:56;;;;;;;;;;;;;;;;;;5032432;28;1665;-61
2021/03/16 14:54:22;;;;;;;;;;;;;;;;;;5056244;28;1087;-59
2021/03/16 14:56:47;;;;;;;;;;;;;;;;;;5043053;28;847;-65
2021/03/16 14:59:12;;;;;;;;;;;;;;;;;;5033902;28;862;-64
2021/03/16 15:01:38;;;;;;;;;;;;;;;;;;5053355;28;820;-63
2021/03/16 15:04:06;;;;;;;;;;;;;;;;;;5053331;28;992;-63
2021/03/16 15:06:31;;;;;;;;;;;;;;;;;;5054070;28;835;-63
2021/03/16 15:08:57;;;;;;;;;;;;;;;;;;5053542;28;1899;-63
2021/03/16 15:11:22;;;;;;;;;;;;;;;;;;5054317;28;976;-62
2021/03/16 15:13:47;;;;;;;;;;;;;;;;;;5051602;28;1504;-62
2021/03/16 15:16:13;;;;;;;;;;;;;;;;;;5068698;28;909;-62
2021/03/16 15:18:38;;;;;;;;;;;;;;;;;;5051204;28;927;-66
2021/03/16 15:21:04;;;;;;;;;;;;;;;;;;5033435;28;855;-61
2021/03/16 15:23:29;;;;;;;;;;;;;;;;;;5033910;28;918;-61
2021/03/16 15:25:57;;;;;;;;;;;;;;;;;;5045868;28;1122;-62
2021/03/16 15:28:22;;;;;;;;;;;;;;;;;;5049698;28;1899;-62
2021/03/16 15:30:47;;;;;;;;;;;;;;;;;;5056195;28;1273;-61
2021/03/16 15:33:13;;;;;;;;;;;;;;;;;;5052659;28;819;-64
2021/03/16 15:35:38;;;;;;;;;;;;;;;;;;5054717;28;1395;-61
2021/03/16 15:38:04;;;;;;;;;;;;;;;;;;5069660;28;1250;-58
2021/03/16 15:40:30;;;;;;;;;;;;;;;;;;5053525;28;801;-65
2021/03/16 15:42:55;;;;;;;;;;;;;;;;;;5053324;28;815;-62
2021/03/16 15:45:20;;;;;;;;;;;;;;;;;;5053529;28;866;-61
2021/03/16 15:47:46;;;;;;;;;;;;;;;;;;5053213;28;799;-60
2021/03/16 15:50:11;;;;;;;;;;;;;;;;;;5062052;28;1906;-61
2021/03/16 15:52:37;;;;;;;;;;;;;;;;;;5056429;28;1194;-60
2021/03/16 15:55:02;;;;;;;;;;;;;;;;;;5064396;28;1130;-60
2021/03/16 15:57:28;;;;;;;;;;;;;;;;;;5065112;28;1246;-60
2021/03/16 15:59:53;;;;;;;;;;;;;;;;;;5060959;28;1150;-60
2021/03/16 16:02:18;;;;;;;;;;;;;;;;;;5060491;28;1139;-60
2021/03/16 16:04:44;;;;;;;;;;;;;;;;;;5060762;28;1225;-64
2021/03/16 16:07:09;;;;;;;;;;;;;;;;;;5051211;28;1997;-62
2021/03/16 16:09:36;;;;;;;;;;;;;;;;;;5060769;28;1996;-62
2021/03/16 16:12:01;;;;;;;;;;;;;;;;;;5060501;28;1063;-60
2021/03/16 16:14:27;;;;;;;;;;;;;;;;;;5040010;28;1646;-60
2021/03/16 16:16:52;;;;;;;;;;;;;;;;;;5058551;28;1140;-61
2021/03/16 16:19:17;;;;;;;;;;;;;;;;;;5060780;28;1154;-61
2021/03/16 16:21:43;;;;;;;;;;;;;;;;;;5059786;28;1083;-60
2021/03/16 16:24:08;;;;;;;;;;;;;;;;;;5056609;28;1230;-60
2021/03/16 16:26:34;;;;;;;;;;;;;;;;;;5059489;28;1202;-60
2021/03/16 16:29:00;;;;;;;;;;;;;;;;;;5061314;28;1960;-61
2021/03/16 16:31:25;;;;;;;;;;;;;;;;;;5055533;28;1217;-61
2021/03/16 16:33:50;;;;;;;;;;;;;;;;;;5054920;28;1210;-62
2021/03/16 16:36:16;;;;;;;;;;;;;;;;;;5045749;28;1649;-62
2021/03/16 16:38:41;;;;;;;;;;;;;;;;;;5039985;28;1386;-62
2021/03/16 16:41:06;;;;;;;;;;;;;;;;;;5044451;28;863;-63
2021/03/16 16:43:32;;;;;;;;;;;;;;;;;;5033357;28;847;-61
2021/03/16 16:45:59;;;;;;;;;;;;;;;;;;5031733;28;1066;-61
2021/03/16 16:48:24;;;;;;;;;;;;;;;;;;5043744;28;1921;-63
2021/03/16 16:50:50;;;;;;;;;;;;;;;;;;5045283;28;1239;-61
2021/03/16 16:53:15;;;;;;;;;;;;;;;;;;5056992;28;1092;-62
2021/03/16 16:55:41;;;;;;;;;;;;;;;;;;5050976;28;1119;-63
2021/03/16 16:58:06;;;;;;;;;;;;;;;;;;5063355;28;1377;-61
2021/03/16 17:00:31;;;;;;;;;;;;;;;;;;5068615;28;929;-60
2021/03/16 17:02:57;;;;;;;;;;;;;;;;;;5069081;28;834;-63
2021/03/16 17:05:25;;;;;;;;;;;;;;;;;;5068841;28;799;-61
2021/03/16 17:07:50;;;;;;;;;;;;;;;;;;5068965;28;853;-60